createdAt,value
2023-05-14T00:00:01.452Z,11.9
2023-05-14T00:01:01.721Z,11.9
2023-05-14T00:02:02.059Z,11.9
2023-05-14T00:03:02.534Z,11.9
2023-05-14T00:04:03.162Z,11.9
2023-05-14T00:05:03.503Z,11.9
2023-05-14T00:06:03.656Z,11.9
2023-05-14T00:07:03.833Z,11.9
2023-05-14T00:08:03.992Z,11.9
2023-05-14T00:09:04.157Z,11.9
2023-05-14T00:10:04.349Z,11.9
2023-05-14T00:11:04.531Z,11.9
2023-05-14T00:12:04.687Z,11.9
2023-05-14T00:13:04.881Z,11.9
2023-05-14T00:14:05.063Z,11.9
2023-05-14T00:15:05.264Z,11.9
2023-05-14T00:16:05.464Z,11.9
2023-05-14T00:17:05.752Z,11.9
2023-05-14T00:18:05.975Z,11.9
2023-05-14T00:19:06.426Z,11.9
2023-05-14T00:20:06.744Z,11.9
2023-05-14T00:21:06.905Z,11.9
2023-05-14T00:22:07.074Z,11.9
2023-05-14T00:23:07.263Z,11.9
2023-05-14T00:24:07.447Z,11.9
2023-05-14T00:25:07.627Z,11.9
2023-05-14T00:26:07.828Z,11.9
2023-05-14T00:27:08.074Z,11.9
2023-05-14T00:28:08.243Z,11.9
2023-05-14T00:29:08.431Z,11.9
2023-05-14T00:30:08.608Z,11.9
2023-05-14T00:31:08.924Z,11.9
2023-05-14T00:32:09.108Z,11.9
2023-05-14T00:33:09.367Z,11.9
2023-05-14T00:34:09.660Z,11.9
2023-05-14T00:35:09.887Z,11.9
2023-05-14T00:36:10.057Z,11.9
2023-05-14T00:37:10.222Z,11.9
2023-05-14T00:38:10.382Z,11.9
2023-05-14T00:39:10.527Z,11.9
2023-05-14T00:40:10.677Z,11.9
2023-05-14T00:41:10.846Z,11.9
2023-05-14T00:42:11.010Z,11.9
2023-05-14T00:43:11.165Z,11.9
2023-05-14T00:44:11.327Z,11.9
2023-05-14T00:45:11.480Z,11.9
2023-05-14T00:46:11.709Z,11.9
2023-05-14T00:47:11.896Z,11.9
2023-05-14T00:48:12.112Z,11.9
2023-05-14T00:49:12.324Z,11.9
2023-05-14T00:50:12.480Z,11.4
2023-05-14T00:51:12.633Z,11.4
2023-05-14T00:52:12.786Z,11.4
2023-05-14T00:53:12.941Z,11.4
2023-05-14T00:54:13.098Z,11.4
2023-05-14T00:55:13.294Z,11.4
2023-05-14T00:56:13.459Z,11.4
2023-05-14T00:57:13.620Z,11.4
2023-05-14T00:58:13.792Z,11.4
2023-05-14T00:59:13.954Z,11.4
2023-05-14T01:00:14.138Z,11.4
2023-05-14T01:01:14.360Z,11.4
2023-05-14T01:02:14.552Z,11.4
2023-05-14T01:03:14.936Z,11.4
2023-05-14T01:04:15.295Z,11.4
2023-05-14T01:05:15.464Z,11.4
2023-05-14T01:06:15.645Z,11.4
2023-05-14T01:07:15.811Z,11.4
2023-05-14T01:08:15.971Z,11.4
2023-05-14T01:09:16.165Z,11.4
2023-05-14T01:10:16.324Z,11.4
2023-05-14T01:11:16.502Z,11.4
2023-05-14T01:12:16.656Z,11.4
2023-05-14T01:13:16.806Z,11.4
2023-05-14T01:14:17.003Z,11.4
2023-05-14T01:15:17.177Z,11.4
2023-05-14T01:16:17.438Z,11.4
2023-05-14T01:17:17.665Z,11.4
2023-05-14T01:18:17.821Z,11.4
2023-05-14T01:19:18.121Z,11.4
2023-05-14T01:20:18.363Z,11.4
2023-05-14T01:21:18.517Z,11.4
2023-05-14T01:22:18.679Z,11.4
2023-05-14T01:23:18.845Z,11.4
2023-05-14T01:24:19.019Z,11.4
2023-05-14T01:25:19.199Z,11.4
2023-05-14T01:26:19.350Z,11.4
2023-05-14T01:27:19.523Z,11.4
2023-05-14T01:28:19.694Z,11.4
2023-05-14T01:29:19.909Z,11.4
2023-05-14T01:30:20.102Z,11.4
2023-05-14T01:31:20.308Z,11.4
2023-05-14T01:32:20.553Z,11.4
2023-05-14T01:33:20.808Z,11.4
2023-05-14T01:34:20.982Z,11.4
2023-05-14T01:35:21.175Z,11.4
2023-05-14T01:36:21.407Z,11.4
2023-05-14T01:37:21.564Z,11.4
2023-05-14T01:38:21.760Z,11.4
2023-05-14T01:39:21.922Z,11.4
2023-05-14T01:40:22.526Z,11.4
2023-05-14T01:41:23.109Z,11.4
2023-05-14T01:42:23.311Z,11.4
2023-05-14T01:43:23.592Z,11.4
2023-05-14T01:44:23.869Z,11.4
2023-05-14T01:45:24.043Z,11.4
2023-05-14T01:46:24.355Z,11.4
2023-05-14T01:47:24.653Z,11.4
2023-05-14T01:48:24.931Z,11.4
2023-05-14T01:49:25.105Z,11.4
2023-05-14T01:50:25.717Z,11.2
2023-05-14T01:51:26.194Z,11.2
2023-05-14T01:52:26.395Z,11.2
2023-05-14T01:53:26.547Z,11.2
2023-05-14T01:54:26.703Z,11.2
2023-05-14T01:55:26.922Z,11.2
2023-05-14T01:56:27.143Z,11.2
2023-05-14T01:57:27.329Z,11.2
2023-05-14T01:58:27.495Z,11.2
2023-05-14T01:59:27.660Z,11.2
2023-05-14T02:00:27.825Z,11.2
2023-05-14T02:01:28.090Z,11.2
2023-05-14T02:02:28.325Z,11.2
2023-05-14T02:03:28.597Z,11.2
2023-05-14T02:04:28.822Z,11.2
2023-05-14T02:05:28.989Z,11.2
2023-05-14T02:06:29.181Z,11.2
2023-05-14T02:07:29.373Z,11.2
2023-05-14T02:08:29.536Z,11.2
2023-05-14T02:09:29.716Z,11.2
2023-05-14T02:10:30.014Z,11.2
2023-05-14T02:11:30.291Z,11.2
2023-05-14T02:12:30.445Z,11.2
2023-05-14T02:13:30.611Z,11.2
2023-05-14T02:14:30.784Z,11.2
2023-05-14T02:15:30.941Z,11.2
2023-05-14T02:16:31.400Z,11.2
2023-05-14T02:17:31.881Z,11.2
2023-05-14T02:18:32.174Z,11.2
2023-05-14T02:19:32.416Z,11.2
2023-05-14T02:20:32.583Z,11.2
2023-05-14T02:21:32.760Z,11.2
2023-05-14T02:22:32.926Z,11.2
2023-05-14T02:23:42.105Z,11.2
2023-05-14T02:24:42.530Z,11
2023-05-14T02:25:42.704Z,11
2023-05-14T02:26:42.869Z,11
2023-05-14T02:27:43.696Z,11
2023-05-14T02:28:44.970Z,11
2023-05-14T02:29:45.143Z,11
2023-05-14T02:30:45.339Z,11
2023-05-14T02:31:45.601Z,11
2023-05-14T02:32:45.931Z,11
2023-05-14T02:33:46.436Z,11
2023-05-14T02:34:46.619Z,11
2023-05-14T02:35:46.789Z,11
2023-05-14T02:36:46.959Z,11
2023-05-14T02:37:47.133Z,11
2023-05-14T02:38:47.283Z,11
2023-05-14T02:39:47.433Z,11
2023-05-14T02:40:47.593Z,11
2023-05-14T02:41:47.765Z,11
2023-05-14T02:42:47.955Z,11
2023-05-14T02:43:48.122Z,11
2023-05-14T02:44:48.278Z,11
2023-05-14T02:45:48.437Z,11
2023-05-14T02:46:48.647Z,11
2023-05-14T02:47:48.944Z,11
2023-05-14T02:48:49.257Z,11
2023-05-14T02:49:49.408Z,11
2023-05-14T02:50:49.577Z,11
2023-05-14T02:51:49.734Z,11
2023-05-14T02:52:49.896Z,11
2023-05-14T02:53:50.075Z,11
2023-05-14T02:54:50.228Z,11
2023-05-14T02:55:50.378Z,11
2023-05-14T02:56:50.543Z,11
2023-05-14T02:57:50.704Z,11
2023-05-14T02:58:50.873Z,11
2023-05-14T02:59:51.542Z,11
2023-05-14T03:00:53.033Z,11
2023-05-14T03:01:54.559Z,11
2023-05-14T03:02:56.093Z,11
2023-05-14T03:03:57.260Z,11
2023-05-14T03:04:57.425Z,11
2023-05-14T03:05:57.609Z,11
2023-05-14T03:06:57.769Z,11
2023-05-14T03:07:57.929Z,11
2023-05-14T03:08:58.116Z,11
2023-05-14T03:09:58.306Z,11
2023-05-14T03:10:58.475Z,11
2023-05-14T03:11:58.633Z,11
2023-05-14T03:12:58.807Z,11
2023-05-14T03:13:58.954Z,11
2023-05-14T03:14:59.127Z,11
2023-05-14T03:15:59.368Z,11
2023-05-14T03:16:59.696Z,11
2023-05-14T03:18:00.080Z,11
2023-05-14T03:19:00.392Z,11
2023-05-14T03:20:00.814Z,11
2023-05-14T03:21:01.012Z,11
2023-05-14T03:22:01.184Z,11
2023-05-14T03:23:01.352Z,11
2023-05-14T03:24:01.518Z,11
2023-05-14T03:25:01.741Z,11
2023-05-14T03:26:01.918Z,11
2023-05-14T03:27:02.102Z,11
2023-05-14T03:28:02.270Z,11
2023-05-14T03:29:02.430Z,11
2023-05-14T03:30:02.636Z,11
2023-05-14T03:31:02.921Z,11
2023-05-14T03:32:03.178Z,11
2023-05-14T03:33:03.522Z,11
2023-05-14T03:34:03.795Z,11
2023-05-14T03:35:03.981Z,11
2023-05-14T03:36:04.131Z,11
2023-05-14T03:37:04.296Z,11
2023-05-14T03:38:04.526Z,11
2023-05-14T03:39:04.715Z,11
2023-05-14T03:40:04.895Z,11
2023-05-14T03:41:05.072Z,11
2023-05-14T03:42:05.217Z,11
2023-05-14T03:43:05.414Z,11
2023-05-14T03:44:05.645Z,11
2023-05-14T03:45:05.867Z,11
2023-05-14T03:46:06.062Z,11
2023-05-14T03:47:06.221Z,11
2023-05-14T03:48:06.633Z,11
2023-05-14T03:49:07.243Z,11
2023-05-14T03:50:07.526Z,11
2023-05-14T03:51:07.752Z,11
2023-05-14T03:52:07.926Z,11
2023-05-14T03:53:08.091Z,11
2023-05-14T03:54:08.286Z,11
2023-05-14T03:55:08.510Z,11
2023-05-14T03:56:08.681Z,11
2023-05-14T03:57:08.844Z,11
2023-05-14T03:58:09.017Z,11
2023-05-14T03:59:09.188Z,11
2023-05-14T04:00:09.367Z,11
2023-05-14T04:01:09.545Z,11
2023-05-14T04:02:09.794Z,11
2023-05-14T04:03:10.210Z,11
2023-05-14T04:04:10.768Z,11
2023-05-14T04:05:11.186Z,11
2023-05-14T04:06:11.538Z,11
2023-05-14T04:07:11.728Z,11
2023-05-14T04:08:11.899Z,11
2023-05-14T04:09:12.073Z,11
2023-05-14T04:10:12.225Z,11
2023-05-14T04:11:12.366Z,11
2023-05-14T04:12:12.561Z,11
2023-05-14T04:13:12.714Z,11
2023-05-14T04:14:12.871Z,11
2023-05-14T04:15:13.083Z,11
2023-05-14T04:16:13.357Z,11
2023-05-14T04:17:13.742Z,11
2023-05-14T04:18:14.188Z,11
2023-05-14T04:19:14.569Z,11
2023-05-14T04:20:14.974Z,11
2023-05-14T04:21:15.128Z,11
2023-05-14T04:22:15.305Z,11
2023-05-14T04:23:15.459Z,11
2023-05-14T04:24:15.611Z,11
2023-05-14T04:25:15.773Z,11
2023-05-14T04:26:15.951Z,11
2023-05-14T04:27:16.111Z,11
2023-05-14T04:28:16.276Z,11
2023-05-14T04:29:16.444Z,11
2023-05-14T04:30:16.637Z,11
2023-05-14T04:31:16.957Z,11
2023-05-14T04:32:17.213Z,11
2023-05-14T04:33:17.370Z,11
2023-05-14T04:34:17.521Z,11
2023-05-14T04:35:17.671Z,11
2023-05-14T04:36:17.845Z,11
2023-05-14T04:37:18.017Z,11
2023-05-14T04:38:18.167Z,11
2023-05-14T04:39:18.317Z,11
2023-05-14T04:40:18.483Z,11
2023-05-14T04:41:18.640Z,11
2023-05-14T04:42:18.797Z,11
2023-05-14T04:43:18.962Z,11
2023-05-14T04:44:19.131Z,11
2023-05-14T04:45:19.322Z,11
2023-05-14T04:46:19.584Z,11
2023-05-14T04:47:19.852Z,11
2023-05-14T04:48:20.105Z,11
2023-05-14T04:49:20.280Z,11
2023-05-14T04:50:20.455Z,10.8
2023-05-14T04:51:20.680Z,10.8
2023-05-14T04:52:20.839Z,10.8
2023-05-14T04:53:21.006Z,10.8
2023-05-14T04:54:21.244Z,10.8
2023-05-14T04:55:21.540Z,10.8
2023-05-14T04:56:21.751Z,10.8
2023-05-14T04:57:21.926Z,10.8
2023-05-14T04:58:22.114Z,10.8
2023-05-14T04:59:22.287Z,10.8
2023-05-14T05:00:23.279Z,10.8
2023-05-14T05:01:23.925Z,10.8
2023-05-14T05:02:24.257Z,10.8
2023-05-14T05:03:24.793Z,10.8
2023-05-14T05:04:25.182Z,10.8
2023-05-14T05:05:25.355Z,10.8
2023-05-14T05:06:25.528Z,10.8
2023-05-14T05:07:25.691Z,10.8
2023-05-14T05:08:25.870Z,10.8
2023-05-14T05:09:26.045Z,10.8
2023-05-14T05:10:26.796Z,10.8
2023-05-14T05:11:27.136Z,10.8
2023-05-14T05:12:27.314Z,10.8
2023-05-14T05:13:27.469Z,10.8
2023-05-14T05:14:27.638Z,10.8
2023-05-14T05:15:27.807Z,10.8
2023-05-14T05:16:28.126Z,10.8
2023-05-14T05:17:28.624Z,10.8
2023-05-14T05:18:28.896Z,10.8
2023-05-14T05:19:43.958Z,10.8
2023-05-14T05:20:44.919Z,11
2023-05-14T05:21:45.091Z,11
2023-05-14T05:22:45.254Z,11
2023-05-14T05:23:45.403Z,11
2023-05-14T05:24:45.567Z,11
2023-05-14T05:25:46.125Z,11
2023-05-14T05:26:46.291Z,11
2023-05-14T05:27:46.448Z,11
2023-05-14T05:28:46.599Z,11
2023-05-14T05:29:46.757Z,11
2023-05-14T05:30:46.909Z,11
2023-05-14T05:31:47.182Z,11
2023-05-14T05:32:47.559Z,11
2023-05-14T05:33:47.833Z,11
2023-05-14T05:34:48.057Z,11
2023-05-14T05:35:48.236Z,11
2023-05-14T05:36:48.437Z,11
2023-05-14T05:37:48.615Z,11
2023-05-14T05:38:48.791Z,11
2023-05-14T05:39:48.954Z,11
2023-05-14T05:40:49.147Z,11
2023-05-14T05:41:49.339Z,11
2023-05-14T05:42:49.501Z,11
2023-05-14T05:43:49.671Z,11
2023-05-14T05:44:49.860Z,11
2023-05-14T05:45:50.028Z,11
2023-05-14T05:46:50.287Z,11
2023-05-14T05:47:50.948Z,11
2023-05-14T05:48:51.273Z,11
2023-05-14T05:49:51.427Z,11.5
2023-05-14T05:50:51.630Z,11.5
2023-05-14T05:51:51.798Z,11.5
2023-05-14T05:52:51.971Z,11.5
2023-05-14T05:53:52.147Z,11.5
2023-05-14T05:54:52.304Z,11.5
2023-05-14T05:55:52.469Z,11.5
2023-05-14T05:56:52.660Z,11.5
2023-05-14T05:57:52.876Z,11.5
2023-05-14T05:58:53.042Z,11.5
2023-05-14T05:59:53.216Z,11.5
2023-05-14T06:00:53.379Z,11.5
2023-05-14T06:01:53.642Z,11.5
2023-05-14T06:02:54.029Z,11.5
2023-05-14T06:03:54.280Z,11.5
2023-05-14T06:04:54.544Z,11.5
2023-05-14T06:05:54.731Z,11.5
2023-05-14T06:06:54.908Z,11.5
2023-05-14T06:07:55.078Z,11.5
2023-05-14T06:08:55.230Z,11.5
2023-05-14T06:09:55.410Z,11.5
2023-05-14T06:10:55.603Z,11.5
2023-05-14T06:11:55.756Z,11.5
2023-05-14T06:12:55.944Z,11.5
2023-05-14T06:13:56.100Z,11.5
2023-05-14T06:14:56.257Z,11.5
2023-05-14T06:15:56.408Z,11.5
2023-05-14T06:16:56.750Z,11.5
2023-05-14T06:17:57.175Z,11.5
2023-05-14T06:18:57.529Z,11.5
2023-05-14T06:19:57.778Z,11.5
2023-05-14T06:20:57.948Z,11.5
2023-05-14T06:21:58.101Z,11.5
2023-05-14T06:22:58.268Z,11.5
2023-05-14T06:23:58.426Z,11.5
2023-05-14T06:24:58.587Z,11.5
2023-05-14T06:25:58.779Z,11.5
2023-05-14T06:26:58.966Z,11.5
2023-05-14T06:27:59.134Z,11.5
2023-05-14T06:28:59.317Z,11.5
2023-05-14T06:29:59.483Z,11.5
2023-05-14T06:30:59.637Z,11.5
2023-05-14T06:31:59.890Z,11.5
2023-05-14T06:33:00.327Z,11.5
2023-05-14T06:34:00.631Z,11.5
2023-05-14T06:35:00.827Z,11.5
2023-05-14T06:36:01.069Z,11.5
2023-05-14T06:37:01.303Z,11.5
2023-05-14T06:38:01.461Z,11.5
2023-05-14T06:39:01.643Z,11.5
2023-05-14T06:40:01.848Z,11.5
2023-05-14T06:41:02.053Z,11.5
2023-05-14T06:42:02.256Z,11.5
2023-05-14T06:43:02.422Z,11.5
2023-05-14T06:44:02.573Z,11.5
2023-05-14T06:45:02.739Z,11.5
2023-05-14T06:46:02.945Z,11.5
2023-05-14T06:47:03.092Z,11.5
2023-05-14T06:48:03.463Z,11.5
2023-05-14T06:49:03.879Z,11.5
2023-05-14T06:50:04.128Z,12.1
2023-05-14T06:51:04.365Z,12.1
2023-05-14T06:52:04.548Z,12.1
2023-05-14T06:53:04.711Z,12.1
2023-05-14T06:54:04.875Z,12.1
2023-05-14T06:55:05.040Z,12.1
2023-05-14T06:56:05.221Z,12.1
2023-05-14T06:57:05.367Z,12.1
2023-05-14T06:58:05.523Z,12.1
2023-05-14T06:59:05.698Z,12.1
2023-05-14T07:00:05.848Z,12.1
2023-05-14T07:01:06.113Z,12.1
2023-05-14T07:02:06.349Z,12.1
2023-05-14T07:03:06.657Z,12.1
2023-05-14T07:04:07.236Z,12.1
2023-05-14T07:05:07.532Z,12.1
2023-05-14T07:06:07.726Z,12.1
2023-05-14T07:07:07.933Z,12.1
2023-05-14T07:08:08.089Z,12.1
2023-05-14T07:09:08.257Z,12.1
2023-05-14T07:10:08.421Z,12.1
2023-05-14T07:11:08.600Z,12.1
2023-05-14T07:12:08.773Z,12.1
2023-05-14T07:13:08.946Z,12.1
2023-05-14T07:14:09.112Z,12.1
2023-05-14T07:15:09.290Z,12.1
2023-05-14T07:16:09.458Z,12.1
2023-05-14T07:17:09.665Z,12.1
2023-05-14T07:18:09.907Z,12.1
2023-05-14T07:19:10.509Z,12.1
2023-05-14T07:20:10.785Z,12.1
2023-05-14T07:21:10.954Z,12.1
2023-05-14T07:22:11.135Z,12.1
2023-05-14T07:23:11.322Z,12.1
2023-05-14T07:24:11.514Z,12.1
2023-05-14T07:25:11.670Z,12.1
2023-05-14T07:26:11.839Z,12.1
2023-05-14T07:27:12.010Z,12.1
2023-05-14T07:28:12.199Z,12.1
2023-05-14T07:29:12.354Z,12.1
2023-05-14T07:30:12.510Z,12.1
2023-05-14T07:31:12.732Z,12.1
2023-05-14T07:32:15.831Z,12.1
2023-05-14T07:33:16.076Z,12.1
2023-05-14T07:34:16.239Z,12.1
2023-05-14T07:35:16.412Z,12.1
2023-05-14T07:36:16.566Z,12.1
2023-05-14T07:37:16.747Z,12.1
2023-05-14T07:38:16.931Z,12.1
2023-05-14T07:39:17.100Z,12.1
2023-05-14T07:40:17.291Z,12.1
2023-05-14T07:41:17.448Z,12.1
2023-05-14T07:42:36.866Z,12.1
2023-05-14T07:43:37.805Z,12.9
2023-05-14T07:44:37.961Z,12.9
2023-05-14T07:45:38.144Z,12.9
2023-05-14T07:46:38.313Z,12.9
2023-05-14T07:47:38.653Z,12.9
2023-05-14T07:48:39.204Z,12.9
2023-05-14T07:49:39.463Z,13.1
2023-05-14T07:50:39.633Z,13.1
2023-05-14T07:51:39.805Z,13.1
2023-05-14T07:52:39.986Z,13.1
2023-05-14T07:53:40.164Z,13.1
2023-05-14T07:54:40.319Z,13.1
2023-05-14T07:55:40.473Z,13.1
2023-05-14T07:56:40.637Z,13.1
2023-05-14T07:57:40.804Z,13.1
2023-05-14T07:58:40.970Z,13.1
2023-05-14T07:59:41.137Z,13.1
2023-05-14T08:00:41.302Z,13.1
2023-05-14T08:01:41.505Z,13.1
2023-05-14T08:02:41.919Z,13.1
2023-05-14T08:03:42.329Z,13.1
2023-05-14T08:04:42.723Z,13.1
2023-05-14T08:05:42.877Z,13.1
2023-05-14T08:06:43.081Z,13.1
2023-05-14T08:07:43.277Z,14.1
2023-05-14T08:08:43.463Z,14.1
2023-05-14T08:09:43.620Z,14.1
2023-05-14T08:10:43.974Z,14.1
2023-05-14T08:11:44.195Z,14.1
2023-05-14T08:12:44.358Z,14.1
2023-05-14T08:13:44.549Z,14.1
2023-05-14T08:14:44.724Z,14.1
2023-05-14T08:15:44.913Z,14.1
2023-05-14T08:16:45.136Z,14.1
2023-05-14T08:17:45.608Z,14.1
2023-05-14T08:18:46.065Z,14.1
2023-05-14T08:19:46.252Z,14.1
2023-05-14T08:20:46.416Z,14.1
2023-05-14T08:21:46.590Z,14.1
2023-05-14T08:22:46.754Z,14.1
2023-05-14T08:23:46.930Z,14.1
2023-05-14T08:24:47.093Z,14.1
2023-05-14T08:25:47.267Z,14.1
2023-05-14T08:26:47.426Z,14.1
2023-05-14T08:27:47.616Z,14.1
2023-05-14T08:28:47.776Z,14.1
2023-05-14T08:29:47.939Z,14.1
2023-05-14T08:30:48.166Z,14.1
2023-05-14T08:31:48.373Z,14.1
2023-05-14T08:32:48.608Z,14.1
2023-05-14T08:33:48.828Z,14.1
2023-05-14T08:34:49.005Z,14.1
2023-05-14T08:35:49.187Z,14.1
2023-05-14T08:36:49.356Z,14.1
2023-05-14T08:37:49.528Z,14.1
2023-05-14T08:38:49.700Z,14.1
2023-05-14T08:39:49.862Z,14.1
2023-05-14T08:40:50.026Z,14.1
2023-05-14T08:41:50.177Z,14.1
2023-05-14T08:42:50.377Z,14.1
2023-05-14T08:43:50.535Z,14.1
2023-05-14T08:44:50.687Z,14.1
2023-05-14T08:45:50.859Z,14.1
2023-05-14T08:46:51.029Z,14.1
2023-05-14T08:47:51.691Z,15.1
2023-05-14T08:48:52.210Z,15.1
2023-05-14T08:49:52.489Z,15.1
2023-05-14T08:50:52.648Z,15.1
2023-05-14T08:51:52.800Z,15.1
2023-05-14T08:52:52.993Z,15.1
2023-05-14T08:53:53.171Z,15.1
2023-05-14T08:54:53.336Z,15.1
2023-05-14T08:55:53.645Z,15.1
2023-05-14T08:56:53.954Z,15.1
2023-05-14T08:57:54.121Z,15.1
2023-05-14T08:58:54.285Z,15.1
2023-05-14T08:59:54.451Z,15.1
2023-05-14T09:00:54.626Z,15.1
2023-05-14T09:01:54.876Z,15.1
2023-05-14T09:02:55.129Z,15.1
2023-05-14T09:03:55.476Z,15.1
2023-05-14T09:04:55.844Z,15.1
2023-05-14T09:05:59.353Z,15.1
2023-05-14T09:07:00.460Z,15.7
2023-05-14T09:08:00.621Z,15.7
2023-05-14T09:09:00.783Z,15.7
2023-05-14T09:10:00.947Z,15.7
2023-05-14T09:11:01.135Z,16.1
2023-05-14T09:12:01.288Z,16.1
2023-05-14T09:13:01.463Z,16.1
2023-05-14T09:14:01.616Z,16.1
2023-05-14T09:15:01.820Z,16.1
2023-05-14T09:16:02.048Z,16.1
2023-05-14T09:17:02.356Z,16.1
2023-05-14T09:18:02.618Z,16.1
2023-05-14T09:19:02.925Z,16.1
2023-05-14T09:20:03.212Z,16.1
2023-05-14T09:21:03.397Z,16.1
2023-05-14T09:22:03.554Z,16.1
2023-05-14T09:23:03.741Z,16.1
2023-05-14T09:24:03.946Z,16.1
2023-05-14T09:25:04.133Z,16.1
2023-05-14T09:26:04.325Z,16.1
2023-05-14T09:27:04.492Z,16.1
2023-05-14T09:28:04.667Z,16.1
2023-05-14T09:29:04.826Z,16.1
2023-05-14T09:30:05.014Z,16.1
2023-05-14T09:31:05.217Z,16.1
2023-05-14T09:32:05.989Z,16.1
2023-05-14T09:33:06.315Z,16.1
2023-05-14T09:34:06.547Z,16.1
2023-05-14T09:35:06.727Z,16.1
2023-05-14T09:36:06.899Z,16.1
2023-05-14T09:37:07.122Z,17.1
2023-05-14T09:38:07.300Z,17.1
2023-05-14T09:39:07.501Z,17.1
2023-05-14T09:40:07.676Z,17.1
2023-05-14T09:41:07.859Z,17.1
2023-05-14T09:42:08.039Z,17.1
2023-05-14T09:43:08.214Z,17.1
2023-05-14T09:44:08.398Z,17.1
2023-05-14T09:45:08.574Z,17.1
2023-05-14T09:46:08.775Z,17.1
2023-05-14T09:47:09.020Z,17.1
2023-05-14T09:48:09.366Z,17.1
2023-05-14T09:49:09.720Z,17.1
2023-05-14T09:50:09.891Z,17.1
2023-05-14T09:51:10.088Z,17.1
2023-05-14T09:52:10.242Z,17.1
2023-05-14T09:53:10.483Z,17.1
2023-05-14T09:54:10.678Z,17.1
2023-05-14T09:55:10.858Z,17.1
2023-05-14T09:56:11.057Z,17.1
2023-05-14T09:57:11.228Z,17.1
2023-05-14T09:58:11.382Z,17.1
2023-05-14T09:59:11.552Z,17.1
2023-05-14T10:00:11.715Z,17.1
2023-05-14T10:01:12.029Z,17.1
2023-05-14T10:02:12.295Z,17.1
2023-05-14T10:03:12.509Z,17.1
2023-05-14T10:04:12.925Z,17.1
2023-05-14T10:05:13.350Z,17.1
2023-05-14T10:06:13.725Z,17.1
2023-05-14T10:07:13.890Z,17.1
2023-05-14T10:08:14.073Z,17.1
2023-05-14T10:09:14.357Z,17.1
2023-05-14T10:10:14.636Z,17.1
2023-05-14T10:11:14.802Z,17.1
2023-05-14T10:12:14.967Z,17.1
2023-05-14T10:13:15.151Z,17.1
2023-05-14T10:14:15.335Z,17.1
2023-05-14T10:15:15.481Z,17.1
2023-05-14T10:16:15.630Z,17.1
2023-05-14T10:17:16.114Z,17.1
2023-05-14T10:18:16.542Z,17.1
2023-05-14T10:19:16.967Z,17.1
2023-05-14T10:20:17.338Z,17.1
2023-05-14T10:21:17.526Z,17.1
2023-05-14T10:22:17.677Z,17.1
2023-05-14T10:23:17.833Z,17.1
2023-05-14T10:24:18.008Z,17.1
2023-05-14T10:25:18.195Z,17.1
2023-05-14T10:26:18.360Z,17.1
2023-05-14T10:27:18.519Z,17.1
2023-05-14T10:28:18.683Z,17.1
2023-05-14T10:29:18.852Z,17.1
2023-05-14T10:30:19.176Z,17.1
2023-05-14T10:31:19.451Z,17.1
2023-05-14T10:32:19.710Z,17.1
2023-05-14T10:33:19.870Z,17.1
2023-05-14T10:34:20.030Z,17.1
2023-05-14T10:35:20.187Z,17.1
2023-05-14T10:36:20.406Z,17.5
2023-05-14T10:37:20.632Z,17.5
2023-05-14T10:38:20.841Z,17.5
2023-05-14T10:39:20.994Z,17.5
2023-05-14T10:40:21.397Z,17.5
2023-05-14T10:41:21.733Z,17.5
2023-05-14T10:42:21.910Z,17.5
2023-05-14T10:43:22.100Z,17.5
2023-05-14T10:44:22.261Z,17.5
2023-05-14T10:45:22.410Z,17.5
2023-05-14T10:46:22.723Z,17.5
2023-05-14T10:47:23.015Z,17.5
2023-05-14T10:48:23.333Z,17.5
2023-05-14T10:49:43.701Z,17.5
2023-05-14T10:50:44.329Z,17.7
2023-05-14T10:51:44.681Z,17.7
2023-05-14T10:52:44.907Z,17.7
2023-05-14T10:53:45.070Z,17.7
2023-05-14T10:54:45.236Z,17.7
2023-05-14T10:55:45.407Z,17.7
2023-05-14T10:56:45.571Z,17.7
2023-05-14T10:57:45.741Z,17.7
2023-05-14T10:58:45.935Z,17.7
2023-05-14T10:59:46.125Z,17.7
2023-05-14T11:00:46.276Z,17.7
2023-05-14T11:01:46.508Z,17.7
2023-05-14T11:02:46.839Z,17.7
2023-05-14T11:03:47.441Z,17.7
2023-05-14T11:04:47.661Z,17.7
2023-05-14T11:05:47.818Z,17.7
2023-05-14T11:06:48.013Z,17.7
2023-05-14T11:07:48.269Z,17.7
2023-05-14T11:08:48.435Z,17.7
2023-05-14T11:09:48.589Z,18.5
2023-05-14T11:10:48.753Z,18.5
2023-05-14T11:11:48.906Z,18.5
2023-05-14T11:12:49.076Z,18.5
2023-05-14T11:13:49.300Z,18.5
2023-05-14T11:14:49.525Z,18.5
2023-05-14T11:15:49.730Z,18.5
2023-05-14T11:16:50.093Z,18.5
2023-05-14T11:17:50.659Z,18.5
2023-05-14T11:18:51.105Z,18.5
2023-05-14T11:19:51.436Z,18.5
2023-05-14T11:20:51.603Z,18.5
2023-05-14T11:21:51.746Z,18.5
2023-05-14T11:22:52.025Z,18.5
2023-05-14T11:23:52.187Z,18.5
2023-05-14T11:24:52.365Z,18.5
2023-05-14T11:25:52.721Z,18.5
2023-05-14T11:26:53.020Z,18.5
2023-05-14T11:27:53.195Z,18.5
2023-05-14T11:28:53.358Z,19.5
2023-05-14T11:29:53.528Z,19.5
2023-05-14T11:30:53.692Z,19.5
2023-05-14T11:31:53.982Z,19.5
2023-05-14T11:32:54.447Z,19.5
2023-05-14T11:33:54.730Z,19.5
2023-05-14T11:34:54.909Z,19.5
2023-05-14T11:35:55.104Z,19.5
2023-05-14T11:36:55.337Z,19.5
2023-05-14T11:37:55.518Z,19.5
2023-05-14T11:38:55.725Z,19.5
2023-05-14T11:39:55.885Z,19.5
2023-05-14T11:40:56.100Z,19.5
2023-05-14T11:41:56.279Z,19.5
2023-05-14T11:42:56.436Z,19.5
2023-05-14T11:43:56.613Z,19.5
2023-05-14T11:44:56.822Z,19.5
2023-05-14T11:45:57.148Z,19.5
2023-05-14T11:46:57.463Z,19.5
2023-05-14T11:47:57.859Z,19.5
2023-05-14T11:48:58.223Z,19.5
2023-05-14T11:49:58.371Z,19.5
2023-05-14T11:50:58.547Z,19.5
2023-05-14T11:51:58.715Z,19.5
2023-05-14T11:52:58.883Z,19.5
2023-05-14T11:53:59.072Z,19.5
2023-05-14T11:54:59.249Z,19.5
2023-05-14T11:55:59.406Z,19.5
2023-05-14T11:56:59.590Z,19.5
2023-05-14T11:57:59.747Z,19.5
2023-05-14T11:58:59.908Z,19.5
2023-05-14T12:00:00.182Z,19.5
2023-05-14T12:01:00.437Z,19.5
2023-05-14T12:02:00.588Z,19.5
2023-05-14T12:03:00.840Z,19.5
2023-05-14T12:04:01.364Z,19.5
2023-05-14T12:05:01.885Z,19.5
2023-05-14T12:06:02.158Z,19.5
2023-05-14T12:07:02.428Z,19.5
2023-05-14T12:08:02.627Z,18.5
2023-05-14T12:09:02.778Z,18.5
2023-05-14T12:10:02.962Z,18.5
2023-05-14T12:11:03.155Z,18.5
2023-05-14T12:12:03.375Z,18.5
2023-05-14T12:13:03.571Z,18.5
2023-05-14T12:14:03.753Z,18.5
2023-05-14T12:15:03.904Z,18.5
2023-05-14T12:16:04.136Z,18.5
2023-05-14T12:17:04.404Z,18.5
2023-05-14T12:18:23.243Z,18.5
2023-05-14T12:19:25.480Z,17.7
2023-05-14T12:20:26.035Z,17.5
2023-05-14T12:21:26.521Z,17.5
2023-05-14T12:22:26.666Z,17.5
2023-05-14T12:23:26.916Z,17.5
2023-05-14T12:24:27.120Z,17.5
2023-05-14T12:25:27.309Z,17.5
2023-05-14T12:26:27.465Z,17.5
2023-05-14T12:27:27.659Z,17.5
2023-05-14T12:28:27.875Z,17.5
2023-05-14T12:29:28.037Z,17.5
2023-05-14T12:30:28.368Z,17.5
2023-05-14T12:31:28.739Z,16.5
2023-05-14T12:32:28.984Z,16.5
2023-05-14T12:33:29.251Z,16.5
2023-05-14T12:34:29.407Z,16.5
2023-05-14T12:35:29.609Z,16.5
2023-05-14T12:36:29.822Z,16.5
2023-05-14T12:37:31.408Z,16.5
2023-05-14T12:38:31.574Z,16.5
2023-05-14T12:39:31.744Z,16.5
2023-05-14T12:40:31.901Z,16.5
2023-05-14T12:41:32.220Z,16.5
2023-05-14T12:42:32.378Z,16.5
2023-05-14T12:43:32.537Z,15.5
2023-05-14T12:44:32.696Z,15.5
2023-05-14T12:45:32.865Z,15.5
2023-05-14T12:46:33.179Z,15.5
2023-05-14T12:47:33.467Z,15.5
2023-05-14T12:48:33.670Z,15.5
2023-05-14T12:49:33.817Z,15.5
2023-05-14T12:50:33.982Z,15.5
2023-05-14T12:51:34.142Z,15.5
2023-05-14T12:52:40.055Z,15.5
2023-05-14T12:53:40.457Z,14.9
2023-05-14T12:54:43.027Z,14.9
2023-05-14T12:55:43.203Z,14.9
2023-05-14T12:56:43.372Z,14.9
2023-05-14T12:57:43.532Z,14.9
2023-05-14T12:58:43.712Z,14.9
2023-05-14T12:59:43.873Z,14.9
2023-05-14T13:00:44.176Z,14.5
2023-05-14T13:01:44.451Z,14.5
2023-05-14T13:02:44.754Z,14.5
2023-05-14T13:03:45.053Z,14.5
2023-05-14T13:04:45.363Z,14.5
2023-05-14T13:05:45.592Z,14.5
2023-05-14T13:06:45.771Z,14.5
2023-05-14T13:07:45.934Z,14.5
2023-05-14T13:08:46.103Z,14.5
2023-05-14T13:09:46.282Z,14.5
2023-05-14T13:10:46.444Z,14.5
2023-05-14T13:11:46.595Z,14.5
2023-05-14T13:12:46.778Z,14.5
2023-05-14T13:13:46.931Z,14.5
2023-05-14T13:14:47.087Z,14.5
2023-05-14T13:15:47.252Z,14.5
2023-05-14T13:16:47.476Z,14.5
2023-05-14T13:17:47.794Z,14.5
2023-05-14T13:18:48.072Z,14.5
2023-05-14T13:19:48.322Z,14.5
2023-05-14T13:20:48.482Z,14.5
2023-05-14T13:21:48.646Z,14.5
2023-05-14T13:22:48.802Z,14.5
2023-05-14T13:23:48.960Z,14.5
2023-05-14T13:24:49.173Z,14.5
2023-05-14T13:25:50.196Z,14.5
2023-05-14T13:26:50.369Z,14.5
2023-05-14T13:27:50.540Z,14.5
2023-05-14T13:28:50.684Z,14.5
2023-05-14T13:29:50.851Z,14.5
2023-05-14T13:30:51.144Z,14.5
2023-05-14T13:31:51.408Z,14.5
2023-05-14T13:32:51.649Z,14.5
2023-05-14T13:33:51.904Z,14.5
2023-05-14T13:34:52.068Z,14.5